createdAt,value
2018-04-10T00:07:42.211Z,7.50
2018-04-10T00:10:30.028Z,7.50
2018-04-10T00:13:18.559Z,7.50
2018-04-10T00:16:09.033Z,7.40
2018-04-10T00:24:40.185Z,7.30
2018-04-10T00:33:27.165Z,7.30
2018-04-10T00:36:08.976Z,7.20
2018-04-10T00:38:49.830Z,7.20
2018-04-10T00:53:29.999Z,7.10
2018-04-10T00:56:17.632Z,7.10
2018-04-10T00:58:59.240Z,7.10
2018-04-10T01:01:40.771Z,7.10
2018-04-10T01:04:22.255Z,7.10
2018-04-10T01:07:04.285Z,7.00
2018-04-10T01:09:46.260Z,7.00
2018-04-10T01:12:27.668Z,7.00
2018-04-10T01:15:15.160Z,6.90
2018-04-10T01:17:56.491Z,7.10
2018-04-10T01:20:37.085Z,6.90
2018-04-10T01:23:21.694Z,7.00
2018-04-10T01:26:09.944Z,6.80
2018-04-10T01:29:00.966Z,6.90
2018-04-10T01:34:44.902Z,6.80
2018-04-10T01:37:27.430Z,6.90
2018-04-10T01:40:08.877Z,6.90
2018-04-10T01:42:53.647Z,6.80
2018-04-10T01:45:35.248Z,6.80
2018-04-10T01:48:17.356Z,6.60
2018-04-10T01:50:59.958Z,6.70
2018-04-10T01:53:41.529Z,6.70
2018-04-10T01:56:27.204Z,6.60
2018-04-10T01:59:09.185Z,6.80
2018-04-10T02:01:51.386Z,6.70
2018-04-10T02:04:35.125Z,6.70
2018-04-10T02:07:16.658Z,6.70
2018-04-10T02:13:00.708Z,6.70
2018-04-10T02:15:47.171Z,6.60
2018-04-10T02:18:33.312Z,6.60
2018-04-10T02:21:14.905Z,6.60
2018-04-10T02:23:56.636Z,6.40
2018-04-10T02:26:38.069Z,6.50
2018-04-10T02:29:18.349Z,6.50
2018-04-10T02:32:00.973Z,6.90
2018-04-10T02:53:00.313Z,8.30
2018-04-10T02:55:51.093Z,8.30
2018-04-10T03:01:38.491Z,8.20
2018-04-10T03:07:29.615Z,8.00
2018-04-10T03:19:23.805Z,7.50
2018-04-10T03:22:11.510Z,7.40
2018-04-10T03:27:52.228Z,7.40
2018-04-10T03:30:34.392Z,7.30
2018-04-10T03:33:17.639Z,7.20
2018-04-10T03:35:59.663Z,7.20
2018-04-10T03:38:52.031Z,7.10
2018-04-10T03:41:39.492Z,7.10
2018-04-10T03:47:20.127Z,7.10
2018-04-10T03:50:02.541Z,7.10
2018-04-10T03:52:45.622Z,7.20
2018-04-10T03:55:37.802Z,7.10
2018-04-10T03:58:20.706Z,7.00
2018-04-10T04:01:03.805Z,7.10
2018-04-10T04:03:45.610Z,7.00
2018-04-10T04:06:27.136Z,7.10
2018-04-10T04:09:13.044Z,7.10
2018-04-10T04:11:57.223Z,7.00
2018-04-10T04:14:42.574Z,6.90
2018-04-10T04:17:26.173Z,6.80
2018-04-10T04:20:09.884Z,6.80
2018-04-10T04:22:54.369Z,6.70
2018-04-10T04:25:35.664Z,6.70
2018-04-10T04:28:16.184Z,6.60
2018-04-10T04:30:58.182Z,6.60
2018-04-10T04:33:39.960Z,6.60
2018-04-10T04:36:21.353Z,6.50
2018-04-10T04:39:02.806Z,6.40
2018-04-10T04:41:44.078Z,6.40
2018-04-10T04:44:24.931Z,6.50
2018-04-10T04:47:06.636Z,6.60
2018-04-10T04:49:48.030Z,6.70
2018-04-10T04:52:29.142Z,6.70
2018-04-10T04:55:15.897Z,6.70
2018-04-10T04:58:20.980Z,6.80
2018-04-10T05:01:03.125Z,6.80
2018-04-10T05:06:47.827Z,6.90
2018-04-10T05:09:29.055Z,6.90
2018-04-10T05:21:04.529Z,7.40
2018-04-10T06:35:56.915Z,12.30
2018-04-10T06:38:53.390Z,12.50
2018-04-10T06:47:59.231Z,13.20
2018-04-10T06:50:59.225Z,13.50
2018-04-10T06:56:41.121Z,13.90
2018-04-10T06:59:11.605Z,14.20
2018-04-10T07:01:40.332Z,14.30
2018-04-10T07:04:11.953Z,14.50
2018-04-10T07:06:41.693Z,14.60
2018-04-10T07:09:10.641Z,14.80
2018-04-10T07:11:39.116Z,14.90
2018-04-10T07:14:07.237Z,15.00
2018-04-10T07:16:42.749Z,15.10
2018-04-10T07:19:10.819Z,15.10
2018-04-10T07:24:15.017Z,15.30
2018-04-10T07:26:42.892Z,15.30
2018-04-10T07:29:11.420Z,15.40
2018-04-10T07:31:39.345Z,15.50
2018-04-10T07:34:08.097Z,15.60
2018-04-10T07:36:37.864Z,15.80
2018-04-10T07:39:06.443Z,15.90
2018-04-10T07:41:35.842Z,16.00
2018-04-10T07:44:05.664Z,16.10
2018-04-10T07:46:34.286Z,16.10
2018-04-10T07:49:02.380Z,16.20
2018-04-10T07:51:32.907Z,16.50
2018-04-10T07:54:02.547Z,16.70
2018-04-10T07:56:30.960Z,16.60
2018-04-10T07:59:00.063Z,16.80
2018-04-10T08:01:28.568Z,16.90
2018-04-10T08:03:58.103Z,17.30
2018-04-10T08:06:26.325Z,17.20
2018-04-10T08:08:56.012Z,17.60
2018-04-10T08:11:24.346Z,17.50
2018-04-10T08:13:53.272Z,17.80
2018-04-10T08:16:22.050Z,17.70
2018-04-10T08:18:50.636Z,17.80
2018-04-10T08:21:19.086Z,17.90
2018-04-10T08:23:47.203Z,17.90
2018-04-10T08:26:15.653Z,18.00
2018-04-10T08:28:44.369Z,18.20
2018-04-10T08:31:13.032Z,18.20
2018-04-10T08:33:43.396Z,18.40
2018-04-10T08:36:12.126Z,18.30
2018-04-10T08:38:40.933Z,18.60
2018-04-10T08:41:09.879Z,18.90
2018-04-10T08:43:39.496Z,18.80
2018-04-10T08:46:07.285Z,19.00
2018-04-10T08:48:36.053Z,19.10
2018-04-10T08:51:04.807Z,19.00
2018-04-10T08:53:32.492Z,19.10
2018-04-10T08:56:00.802Z,19.20
2018-04-10T08:58:28.476Z,19.30
2018-04-10T09:00:57.725Z,19.40
2018-04-10T09:03:26.125Z,19.30
2018-04-10T09:05:54.268Z,19.50
2018-04-10T09:08:22.626Z,19.40
2018-04-10T09:10:51.563Z,19.50
2018-04-10T09:13:19.536Z,19.60
2018-04-10T09:15:47.543Z,19.70
2018-04-10T09:18:15.658Z,19.80
2018-04-10T09:20:44.514Z,19.90
2018-04-10T09:23:13.864Z,19.80
2018-04-10T09:25:41.876Z,19.80
2018-04-10T09:28:10.658Z,19.90
2018-04-10T09:30:39.661Z,19.90
2018-04-10T09:33:08.417Z,19.80
2018-04-10T09:35:37.261Z,19.80
2018-04-10T09:38:06.088Z,19.60
2018-04-10T09:40:34.114Z,19.60
2018-04-10T09:43:04.024Z,19.60
2018-04-10T09:45:31.544Z,19.50
2018-04-10T09:47:59.057Z,19.60
2018-04-10T09:50:27.344Z,19.60
2018-04-10T09:52:54.895Z,19.50
2018-04-10T09:55:23.352Z,19.80
2018-04-10T09:57:50.900Z,19.80
2018-04-10T10:00:24.208Z,19.90
2018-04-10T10:02:51.730Z,19.90
2018-04-10T10:05:19.266Z,19.90
2018-04-10T10:07:46.782Z,20.00
2018-04-10T10:10:14.640Z,20.00
2018-04-10T10:12:42.704Z,20.10
2018-04-10T10:15:10.246Z,20.30
2018-04-10T10:17:37.819Z,20.50
2018-04-10T10:20:05.340Z,20.50
2018-04-10T10:22:34.412Z,20.80
2018-04-10T10:25:01.974Z,20.70
2018-04-10T10:27:29.499Z,20.90
2018-04-10T10:29:57.007Z,21.00
2018-04-10T10:32:25.263Z,21.00
2018-04-10T10:34:52.759Z,21.00
2018-04-10T10:37:21.092Z,20.80
2018-04-10T10:39:48.617Z,20.80
2018-04-10T10:42:16.597Z,20.90
2018-04-10T10:44:44.097Z,21.10
2018-04-10T10:47:11.623Z,21.20
2018-04-10T10:49:39.185Z,21.40
2018-04-10T10:52:06.707Z,21.40
2018-04-10T10:54:35.085Z,21.10
2018-04-10T10:57:03.433Z,21.10
2018-04-10T10:59:30.958Z,20.90
2018-04-10T11:01:58.486Z,20.80
2018-04-10T11:04:26.871Z,21.00
2018-04-10T11:06:54.438Z,20.90
2018-04-10T11:09:21.940Z,21.00
2018-04-10T11:11:49.458Z,21.00
2018-04-10T11:14:16.993Z,21.10
2018-04-10T11:16:45.319Z,21.00
2018-04-10T11:19:12.915Z,21.00
2018-04-10T11:21:40.456Z,21.00
2018-04-10T11:24:08.644Z,21.00
2018-04-10T11:26:37.117Z,20.80
2018-04-10T11:29:05.764Z,20.90
2018-04-10T11:31:33.371Z,20.90
2018-04-10T11:34:01.159Z,21.00
2018-04-10T11:36:29.108Z,21.00
2018-04-10T11:38:56.684Z,21.00
2018-04-10T11:41:24.198Z,21.00
2018-04-10T11:43:51.865Z,21.00
2018-04-10T11:46:19.532Z,20.90
2018-04-10T11:48:47.051Z,21.00
2018-04-10T11:51:14.571Z,21.10
2018-04-10T11:53:42.170Z,20.90
2018-04-10T11:56:09.936Z,20.80
2018-04-10T11:58:37.514Z,20.80
2018-04-10T12:01:05.024Z,20.70
2018-04-10T12:03:32.625Z,20.70
2018-04-10T12:06:00.233Z,20.80
2018-04-10T12:08:27.779Z,20.80
2018-04-10T12:10:55.281Z,20.80
2018-04-10T12:13:22.779Z,20.90
2018-04-10T12:15:51.341Z,21.10
2018-04-10T12:18:19.097Z,21.00
2018-04-10T12:20:46.632Z,21.10
2018-04-10T12:23:15.038Z,21.20
2018-04-10T12:25:42.544Z,21.30
2018-04-10T12:28:10.455Z,21.20
2018-04-10T12:30:38.048Z,21.20
2018-04-10T12:33:06.738Z,21.10
2018-04-10T12:35:35.020Z,21.10
2018-04-10T12:38:03.302Z,21.00
2018-04-10T12:40:31.694Z,20.80
2018-04-10T12:42:59.722Z,20.80
2018-04-10T12:45:27.234Z,20.70
2018-04-10T12:47:54.742Z,20.70
2018-04-10T12:50:22.312Z,20.50
2018-04-10T12:52:49.981Z,20.40
2018-04-10T12:55:17.534Z,20.40
2018-04-10T12:57:45.807Z,20.30
2018-04-10T13:00:13.655Z,20.30
2018-04-10T13:02:41.268Z,20.20
2018-04-10T13:05:09.801Z,19.90
2018-04-10T13:07:38.777Z,19.90
2018-04-10T13:10:08.350Z,19.70
2018-04-10T13:12:36.550Z,19.60
2018-04-10T13:15:04.120Z,19.80
2018-04-10T13:17:33.220Z,20.00
2018-04-10T13:20:00.712Z,19.90
2018-04-10T13:22:28.481Z,20.10
2018-04-10T13:24:57.755Z,20.10
2018-04-10T13:27:26.388Z,20.20
2018-04-10T13:29:54.745Z,20.20
2018-04-10T13:32:22.253Z,20.20
2018-04-10T13:34:49.961Z,20.20
2018-04-10T13:37:17.573Z,20.20
2018-04-10T13:39:45.115Z,20.20
2018-04-10T13:42:13.407Z,20.00
2018-04-10T13:44:41.684Z,20.00
2018-04-10T13:47:10.004Z,20.10
2018-04-10T13:49:37.506Z,20.00
2018-04-10T13:52:05.019Z,20.10
2018-04-10T13:54:32.535Z,20.10
2018-04-10T13:57:00.811Z,20.30
2018-04-10T13:59:29.102Z,20.40
2018-04-10T14:01:57.380Z,20.30
2018-04-10T14:04:24.907Z,20.30
2018-04-10T14:06:52.438Z,20.30
2018-04-10T14:09:19.936Z,20.30
2018-04-10T14:11:47.446Z,20.50
2018-04-10T14:14:14.954Z,20.70
2018-04-10T14:16:42.462Z,20.90
2018-04-10T14:19:09.969Z,20.90
2018-04-10T14:21:37.486Z,21.10
2018-04-10T14:24:05.014Z,21.20
2018-04-10T14:26:33.279Z,21.10
2018-04-10T14:29:01.143Z,21.10
2018-04-10T14:31:30.321Z,21.20
2018-04-10T14:33:58.109Z,21.30
2018-04-10T14:36:25.851Z,21.70
2018-04-10T14:38:53.692Z,22.30
2018-04-10T14:41:21.995Z,22.80
2018-04-10T14:43:50.331Z,22.90
2018-04-10T14:46:18.182Z,22.60
2018-04-10T14:48:46.778Z,22.50
2018-04-10T14:51:14.600Z,22.40
2018-04-10T14:53:42.394Z,22.40
2018-04-10T14:56:11.749Z,22.60
2018-04-10T14:58:39.611Z,22.40
2018-04-10T15:01:08.299Z,22.40
2018-04-10T15:03:35.983Z,22.20
2018-04-10T15:06:03.745Z,21.90
2018-04-10T15:08:31.463Z,21.50
2018-04-10T15:10:59.393Z,21.30
2018-04-10T15:13:27.269Z,21.40
2018-04-10T15:15:55.286Z,21.60
2018-04-10T15:18:23.958Z,21.60
2018-04-10T15:20:53.331Z,21.40
2018-04-10T15:23:21.179Z,21.40
2018-04-10T15:25:48.992Z,21.20
2018-04-10T15:28:17.849Z,20.50
2018-04-10T15:30:45.343Z,20.50
2018-04-10T15:33:14.733Z,19.70
2018-04-10T15:35:44.229Z,19.40
2018-04-10T15:38:12.134Z,19.40
2018-04-10T15:40:39.821Z,19.30
2018-04-10T15:43:07.902Z,19.10
2018-04-10T15:45:37.681Z,18.90
2018-04-10T15:48:05.542Z,18.80
2018-04-10T15:50:34.372Z,18.70
2018-04-10T15:53:02.132Z,18.60
2018-04-10T15:55:30.032Z,18.60
2018-04-10T15:57:57.816Z,18.50
2018-04-10T16:00:26.490Z,18.30
2018-04-10T16:02:55.838Z,18.30
2018-04-10T16:05:24.234Z,18.20
2018-04-10T16:07:52.300Z,18.20
2018-04-10T16:10:21.306Z,18.10
2018-04-10T16:12:49.943Z,18.00
2018-04-10T16:15:18.709Z,17.90
2018-04-10T16:17:46.921Z,17.80
2018-04-10T16:20:16.254Z,17.70
2018-04-10T16:22:43.753Z,17.70
2018-04-10T16:25:11.797Z,17.60
2018-04-10T16:27:40.349Z,17.60
2018-04-10T16:30:09.101Z,17.50
2018-04-10T16:32:38.372Z,17.40
2018-04-10T16:35:06.871Z,17.40
2018-04-10T16:37:34.817Z,17.30
2018-04-10T16:40:03.542Z,17.30
2018-04-10T16:42:31.632Z,17.20
2018-04-10T16:45:00.678Z,17.10
2018-04-10T16:47:28.814Z,17.00
2018-04-10T16:49:56.647Z,17.10
2018-04-10T16:52:24.433Z,17.00
2018-04-10T16:54:53.268Z,17.00
2018-04-10T16:57:21.014Z,17.00
2018-04-10T16:59:50.631Z,17.00
2018-04-10T17:02:18.556Z,16.90
2018-04-10T17:04:46.286Z,16.90
2018-04-10T17:07:14.085Z,16.80
2018-04-10T17:09:41.860Z,16.80
2018-04-10T17:12:10.844Z,16.70
2018-04-10T17:14:40.926Z,16.70
2018-04-10T17:17:09.687Z,16.60
2018-04-10T17:19:38.168Z,16.50
2018-04-10T17:22:06.788Z,16.50
2018-04-10T17:24:35.897Z,16.40
2018-04-10T17:27:03.964Z,16.50
2018-04-10T17:29:32.256Z,16.40
2018-04-10T17:32:00.522Z,16.30
2018-04-10T17:34:29.089Z,16.30
2018-04-10T17:36:56.894Z,16.20
2018-04-10T17:39:24.981Z,16.20
2018-04-10T17:41:53.086Z,16.10
2018-04-10T17:44:21.388Z,16.10
2018-04-10T17:46:49.983Z,16.00
2018-04-10T17:49:18.259Z,15.90
2018-04-10T17:51:46.353Z,15.90
2018-04-10T17:54:14.917Z,15.80
2018-04-10T17:56:42.927Z,15.80
2018-04-10T17:59:11.492Z,15.60
2018-04-10T18:01:40.350Z,15.50
2018-04-10T18:04:09.114Z,15.60
2018-04-10T18:06:36.880Z,15.60
2018-04-10T18:09:05.472Z,15.50
2018-04-10T18:11:33.427Z,15.40
2018-04-10T18:14:02.970Z,15.40
2018-04-10T18:16:31.942Z,15.30
2018-04-10T18:19:00.163Z,15.40
2018-04-10T18:21:28.260Z,15.30
2018-04-10T18:23:57.589Z,15.30
2018-04-10T18:26:25.298Z,15.30
2018-04-10T18:28:54.106Z,15.30
2018-04-10T18:31:23.672Z,15.20
2018-04-10T18:33:52.849Z,15.10
2018-04-10T18:36:21.855Z,15.10
2018-04-10T18:38:49.994Z,15.00
2018-04-10T18:41:18.432Z,15.00
2018-04-10T18:43:46.175Z,14.90
2018-04-10T18:46:14.619Z,14.80
2018-04-10T18:48:48.479Z,14.70
2018-04-10T18:51:17.382Z,14.70
2018-04-10T18:56:33.560Z,14.50
2018-04-10T18:59:03.302Z,14.40
2018-04-10T19:01:32.379Z,14.40
2018-04-10T19:04:01.440Z,14.30
2018-04-10T19:06:29.621Z,14.20
2018-04-10T19:08:58.166Z,14.20
2018-04-10T19:11:27.235Z,14.10
2018-04-10T19:16:29.353Z,14.10
2018-04-10T19:18:57.740Z,14.10
2018-04-10T19:21:25.989Z,14.00
2018-04-10T19:23:54.447Z,14.00
2018-04-10T19:26:23.765Z,13.90
2018-04-10T19:28:55.084Z,13.90
2018-04-10T19:31:24.006Z,13.90
2018-04-10T19:33:53.058Z,13.90
2018-04-10T19:36:21.138Z,13.90
2018-04-10T19:41:55.312Z,13.70
2018-04-10T19:44:34.312Z,13.70
2018-04-10T19:52:38.716Z,13.50
2018-04-10T20:03:51.035Z,13.20
2018-04-10T20:06:38.304Z,13.20
2018-04-10T20:12:00.406Z,13.30
2018-04-10T20:14:31.726Z,13.30
2018-04-10T20:23:00.900Z,13.40
2018-04-10T20:25:53.157Z,13.50
2018-04-10T20:31:45.228Z,13.20
2018-04-10T20:37:26.377Z,13.20
2018-04-10T20:51:28.314Z,13.00
2018-04-10T21:03:01.115Z,12.70
2018-04-10T21:05:48.343Z,12.60
2018-04-10T21:14:26.991Z,12.40
2018-04-10T21:17:25.848Z,12.40
2018-04-10T23:59:55.026Z,9.00
